sensor_id;sensor_type;location;lat;lon;timestamp;temperature;humidity
20915;DHT22;10617;52.032;5.298;2023-01-09T00:03:10;7.60;99.90
20915;DHT22;10617;52.032;5.298;2023-01-09T00:07:12;7.50;99.90
20915;DHT22;10617;52.032;5.298;2023-01-09T00:11:14;7.50;99.90
20915;DHT22;10617;52.032;5.298;2023-01-09T00:15:15;7.50;99.90
20915;DHT22;10617;52.032;5.298;2023-01-09T00:19:17;7.40;99.90
20915;DHT22;10617;52.032;5.298;2023-01-09T00:23:19;7.40;99.90
20915;DHT22;10617;52.032;5.298;2023-01-09T00:27:20;7.40;99.90
20915;DHT22;10617;52.032;5.298;2023-01-09T00:31:22;7.40;99.90
20915;DHT22;10617;52.032;5.298;2023-01-09T00:35:24;7.30;99.90
20915;DHT22;10617;52.032;5.298;2023-01-09T00:39:26;7.30;99.90
20915;DHT22;10617;52.032;5.298;2023-01-09T00:43:30;7.30;99.90
20915;DHT22;10617;52.032;5.298;2023-01-09T00:47:37;7.20;99.90
20915;DHT22;10617;52.032;5.298;2023-01-09T00:51:39;7.10;99.90
20915;DHT22;10617;52.032;5.298;2023-01-09T00:55:41;7.10;99.90
20915;DHT22;10617;52.032;5.298;2023-01-09T00:59:43;7.00;99.90
20915;DHT22;10617;52.032;5.298;2023-01-09T01:03:45;7.00;99.90
20915;DHT22;10617;52.032;5.298;2023-01-09T01:07:46;6.90;99.90
20915;DHT22;10617;52.032;5.298;2023-01-09T01:11:48;6.90;99.90
20915;DHT22;10617;52.032;5.298;2023-01-09T01:15:50;6.90;99.90
20915;DHT22;10617;52.032;5.298;2023-01-09T01:19:51;6.80;99.90
20915;DHT22;10617;52.032;5.298;2023-01-09T01:23:53;6.80;99.90
20915;DHT22;10617;52.032;5.298;2023-01-09T01:27:54;6.70;99.90
20915;DHT22;10617;52.032;5.298;2023-01-09T01:31:56;6.70;99.90
20915;DHT22;10617;52.032;5.298;2023-01-09T01:36:02;6.70;99.90
20915;DHT22;10617;52.032;5.298;2023-01-09T01:40:04;6.60;99.90
20915;DHT22;10617;52.032;5.298;2023-01-09T01:44:55;6.60;99.90
20915;DHT22;10617;52.032;5.298;2023-01-09T01:48:28;6.50;99.90
20915;DHT22;10617;52.032;5.298;2023-01-09T01:52:30;6.50;99.90
20915;DHT22;10617;52.032;5.298;2023-01-09T01:56:36;6.40;99.90
20915;DHT22;10617;52.032;5.298;2023-01-09T02:00:41;6.30;99.90
20915;DHT22;10617;52.032;5.298;2023-01-09T02:04:44;6.30;99.90
20915;DHT22;10617;52.032;5.298;2023-01-09T02:08:46;6.30;99.90
20915;DHT22;10617;52.032;5.298;2023-01-09T02:12:48;6.30;99.90
20915;DHT22;10617;52.032;5.298;2023-01-09T02:16:55;6.40;99.90
20915;DHT22;10617;52.032;5.298;2023-01-09T02:21:09;6.40;99.90
20915;DHT22;10617;52.032;5.298;2023-01-09T02:42:02;6.30;99.90
20915;DHT22;10617;52.032;5.298;2023-01-09T02:46:13;6.30;99.90
20915;DHT22;10617;52.032;5.298;2023-01-09T02:50:20;6.20;99.90
20915;DHT22;10617;52.032;5.298;2023-01-09T02:54:27;6.20;99.90
20915;DHT22;10617;52.032;5.298;2023-01-09T03:07:01;6.10;99.90
20915;DHT22;10617;52.032;5.298;2023-01-09T03:11:04;6.10;99.90
20915;DHT22;10617;52.032;5.298;2023-01-09T03:15:09;6.10;99.90
20915;DHT22;10617;52.032;5.298;2023-01-09T03:19:13;6.10;99.90
20915;DHT22;10617;52.032;5.298;2023-01-09T03:23:16;6.00;99.90
20915;DHT22;10617;52.032;5.298;2023-01-09T03:27:17;6.00;99.90
20915;DHT22;10617;52.032;5.298;2023-01-09T03:31:20;6.00;99.90
20915;DHT22;10617;52.032;5.298;2023-01-09T03:35:21;5.90;99.90
20915;DHT22;10617;52.032;5.298;2023-01-09T03:39:23;5.90;99.90
20915;DHT22;10617;52.032;5.298;2023-01-09T03:43:25;5.90;99.90
20915;DHT22;10617;52.032;5.298;2023-01-09T03:47:26;5.80;99.90
20915;DHT22;10617;52.032;5.298;2023-01-09T03:51:28;5.80;99.90
20915;DHT22;10617;52.032;5.298;2023-01-09T03:55:30;5.80;99.90
20915;DHT22;10617;52.032;5.298;2023-01-09T03:59:31;5.70;99.90
20915;DHT22;10617;52.032;5.298;2023-01-09T04:03:33;5.70;99.90
20915;DHT22;10617;52.032;5.298;2023-01-09T04:07:35;5.70;99.90
20915;DHT22;10617;52.032;5.298;2023-01-09T04:11:37;5.60;99.90
20915;DHT22;10617;52.032;5.298;2023-01-09T04:15:38;5.70;99.90
20915;DHT22;10617;52.032;5.298;2023-01-09T04:39:49;5.60;99.90
20915;DHT22;10617;52.032;5.298;2023-01-09T04:43:51;5.70;99.90
20915;DHT22;10617;52.032;5.298;2023-01-09T04:47:52;5.80;99.90
20915;DHT22;10617;52.032;5.298;2023-01-09T04:51:54;5.80;99.90
20915;DHT22;10617;52.032;5.298;2023-01-09T04:55:56;5.90;99.90
20915;DHT22;10617;52.032;5.298;2023-01-09T04:59:57;6.00;99.90
20915;DHT22;10617;52.032;5.298;2023-01-09T05:03:59;6.00;99.90
20915;DHT22;10617;52.032;5.298;2023-01-09T05:08:01;6.00;99.90
20915;DHT22;10617;52.032;5.298;2023-01-09T05:12:03;6.00;99.90
20915;DHT22;10617;52.032;5.298;2023-01-09T05:16:04;6.00;99.90
20915;DHT22;10617;52.032;5.298;2023-01-09T05:20:06;6.10;99.90
20915;DHT22;10617;52.032;5.298;2023-01-09T05:24:08;6.10;99.90
20915;DHT22;10617;52.032;5.298;2023-01-09T05:28:10;6.10;99.90
20915;DHT22;10617;52.032;5.298;2023-01-09T05:32:11;6.10;99.90
20915;DHT22;10617;52.032;5.298;2023-01-09T05:36:13;6.10;99.90
20915;DHT22;10617;52.032;5.298;2023-01-09T05:40:15;6.10;99.90
20915;DHT22;10617;52.032;5.298;2023-01-09T05:44:17;6.10;99.90
20915;DHT22;10617;52.032;5.298;2023-01-09T05:48:18;6.10;99.90
20915;DHT22;10617;52.032;5.298;2023-01-09T05:52:20;6.10;99.90
20915;DHT22;10617;52.032;5.298;2023-01-09T05:56:22;6.10;99.90
20915;DHT22;10617;52.032;5.298;2023-01-09T06:00:24;6.10;99.90
20915;DHT22;10617;52.032;5.298;2023-01-09T06:04:25;6.20;99.90
20915;DHT22;10617;52.032;5.298;2023-01-09T06:08:30;6.20;99.90
20915;DHT22;10617;52.032;5.298;2023-01-09T06:12:31;6.20;99.90
20915;DHT22;10617;52.032;5.298;2023-01-09T06:16:33;6.20;99.90
20915;DHT22;10617;52.032;5.298;2023-01-09T06:20:35;6.30;99.90
20915;DHT22;10617;52.032;5.298;2023-01-09T06:24:36;6.30;99.90
20915;DHT22;10617;52.032;5.298;2023-01-09T06:28:38;6.40;99.90
20915;DHT22;10617;52.032;5.298;2023-01-09T06:32:40;6.40;99.90
20915;DHT22;10617;52.032;5.298;2023-01-09T06:36:41;6.50;99.90
20915;DHT22;10617;52.032;5.298;2023-01-09T06:40:43;6.50;99.90
20915;DHT22;10617;52.032;5.298;2023-01-09T06:44:44;6.50;99.90
20915;DHT22;10617;52.032;5.298;2023-01-09T06:48:46;6.60;99.90
20915;DHT22;10617;52.032;5.298;2023-01-09T06:52:48;6.60;99.90
20915;DHT22;10617;52.032;5.298;2023-01-09T06:56:49;6.60;99.90
20915;DHT22;10617;52.032;5.298;2023-01-09T07:00:51;6.60;99.90
20915;DHT22;10617;52.032;5.298;2023-01-09T07:04:53;6.60;99.90
20915;DHT22;10617;52.032;5.298;2023-01-09T07:08:55;6.50;99.90
20915;DHT22;10617;52.032;5.298;2023-01-09T07:12:57;6.50;99.90
20915;DHT22;10617;52.032;5.298;2023-01-09T07:16:58;6.50;99.90
20915;DHT22;10617;52.032;5.298;2023-01-09T07:21:00;6.50;99.90
20915;DHT22;10617;52.032;5.298;2023-01-09T07:25:02;6.50;99.90
20915;DHT22;10617;52.032;5.298;2023-01-09T07:29:04;6.50;99.90
20915;DHT22;10617;52.032;5.298;2023-01-09T07:33:05;6.50;99.90
20915;DHT22;10617;52.032;5.298;2023-01-09T07:37:07;6.50;99.90
20915;DHT22;10617;52.032;5.298;2023-01-09T07:41:09;6.50;99.90
20915;DHT22;10617;52.032;5.298;2023-01-09T07:45:10;6.50;99.90
20915;DHT22;10617;52.032;5.298;2023-01-09T07:49:12;6.50;99.90
20915;DHT22;10617;52.032;5.298;2023-01-09T07:53:14;6.60;99.90
20915;DHT22;10617;52.032;5.298;2023-01-09T07:57:15;6.60;99.90
20915;DHT22;10617;52.032;5.298;2023-01-09T08:01:17;6.60;99.90
20915;DHT22;10617;52.032;5.298;2023-01-09T08:05:19;6.60;99.90
20915;DHT22;10617;52.032;5.298;2023-01-09T08:09:21;6.60;99.90
20915;DHT22;10617;52.032;5.298;2023-01-09T08:13:22;6.60;99.90
20915;DHT22;10617;52.032;5.298;2023-01-09T08:17:24;6.50;99.90
20915;DHT22;10617;52.032;5.298;2023-01-09T08:21:27;6.50;99.90
20915;DHT22;10617;52.032;5.298;2023-01-09T08:25:28;6.60;99.90
20915;DHT22;10617;52.032;5.298;2023-01-09T08:29:30;6.60;99.90
20915;DHT22;10617;52.032;5.298;2023-01-09T08:33:31;6.60;99.90
20915;DHT22;10617;52.032;5.298;2023-01-09T08:37:33;6.70;99.90
20915;DHT22;10617;52.032;5.298;2023-01-09T08:41:35;6.80;99.90
20915;DHT22;10617;52.032;5.298;2023-01-09T08:45:55;6.80;99.90
20915;DHT22;10617;52.032;5.298;2023-01-09T08:50:20;6.90;99.90
20915;DHT22;10617;52.032;5.298;2023-01-09T08:54:22;6.90;99.90
20915;DHT22;10617;52.032;5.298;2023-01-09T08:58:24;7.00;99.90
20915;DHT22;10617;52.032;5.298;2023-01-09T09:02:25;7.00;99.90
20915;DHT22;10617;52.032;5.298;2023-01-09T09:06:27;7.00;99.90
20915;DHT22;10617;52.032;5.298;2023-01-09T09:10:28;7.10;99.90
20915;DHT22;10617;52.032;5.298;2023-01-09T09:14:30;7.10;99.90
20915;DHT22;10617;52.032;5.298;2023-01-09T09:18:50;7.10;99.90
20915;DHT22;10617;52.032;5.298;2023-01-09T09:22:52;7.10;99.90
20915;DHT22;10617;52.032;5.298;2023-01-09T09:26:54;7.20;99.90
20915;DHT22;10617;52.032;5.298;2023-01-09T09:30:55;7.20;99.90
20915;DHT22;10617;52.032;5.298;2023-01-09T09:34:57;7.30;99.90
20915;DHT22;10617;52.032;5.298;2023-01-09T09:38:59;7.30;99.90
20915;DHT22;10617;52.032;5.298;2023-01-09T09:51:49;7.50;99.90
20915;DHT22;10617;52.032;5.298;2023-01-09T09:55:53;7.60;99.90
20915;DHT22;10617;52.032;5.298;2023-01-09T09:59:55;7.70;99.90
20915;DHT22;10617;52.032;5.298;2023-01-09T10:03:57;7.70;99.90
20915;DHT22;10617;52.032;5.298;2023-01-09T10:08:06;7.80;99.90
20915;DHT22;10617;52.032;5.298;2023-01-09T10:12:27;7.70;99.90
20915;DHT22;10617;52.032;5.298;2023-01-09T10:16:37;7.70;99.90
20915;DHT22;10617;52.032;5.298;2023-01-09T10:20:49;7.70;99.90
20915;DHT22;10617;52.032;5.298;2023-01-09T10:24:57;7.90;99.90
20915;DHT22;10617;52.032;5.298;2023-01-09T10:29:08;8.00;99.90
20915;DHT22;10617;52.032;5.298;2023-01-09T10:37:43;8.40;99.90
20915;DHT22;10617;52.032;5.298;2023-01-09T10:41:56;8.40;99.90
20915;DHT22;10617;52.032;5.298;2023-01-09T10:46:02;8.40;99.90
20915;DHT22;10617;52.032;5.298;2023-01-09T10:54:20;8.00;99.90
20915;DHT22;10617;52.032;5.298;2023-01-09T10:58:24;7.90;99.90
20915;DHT22;10617;52.032;5.298;2023-01-09T11:02:27;7.80;99.90
20915;DHT22;10617;52.032;5.298;2023-01-09T11:06:37;7.80;99.90
20915;DHT22;10617;52.032;5.298;2023-01-09T11:10:47;7.80;99.90
20915;DHT22;10617;52.032;5.298;2023-01-09T11:14:49;8.00;99.90
20915;DHT22;10617;52.032;5.298;2023-01-09T11:18:52;8.20;99.90
20915;DHT22;10617;52.032;5.298;2023-01-09T11:22:56;8.30;99.90
20915;DHT22;10617;52.032;5.298;2023-01-09T11:31:14;8.30;99.90
20915;DHT22;10617;52.032;5.298;2023-01-09T11:35:23;8.30;99.90
20915;DHT22;10617;52.032;5.298;2023-01-09T11:39:30;8.20;99.90
20915;DHT22;10617;52.032;5.298;2023-01-09T11:43:36;8.30;99.90
20915;DHT22;10617;52.032;5.298;2023-01-09T11:47:39;8.60;99.90
20915;DHT22;10617;52.032;5.298;2023-01-09T11:51:41;8.60;99.90
20915;DHT22;10617;52.032;5.298;2023-01-09T11:55:44;8.50;99.90
20915;DHT22;10617;52.032;5.298;2023-01-09T11:59:46;8.40;99.90
20915;DHT22;10617;52.032;5.298;2023-01-09T12:08:14;8.60;99.90
20915;DHT22;10617;52.032;5.298;2023-01-09T12:12:24;8.80;99.90
20915;DHT22;10617;52.032;5.298;2023-01-09T12:37:48;8.90;99.90
20915;DHT22;10617;52.032;5.298;2023-01-09T12:42:04;8.90;99.90
20915;DHT22;10617;52.032;5.298;2023-01-09T12:46:23;9.00;99.90
20915;DHT22;10617;52.032;5.298;2023-01-09T12:54:42;9.10;99.90
20915;DHT22;10617;52.032;5.298;2023-01-09T13:07:15;8.90;99.90
20915;DHT22;10617;52.032;5.298;2023-01-09T13:11:23;8.90;99.90
20915;DHT22;10617;52.032;5.298;2023-01-09T13:15:38;8.80;99.90
20915;DHT22;10617;52.032;5.298;2023-01-09T13:19:41;8.80;99.90
20915;DHT22;10617;52.032;5.298;2023-01-09T13:27:49;8.80;99.90
20915;DHT22;10617;52.032;5.298;2023-01-09T13:36:06;9.30;99.90
20915;DHT22;10617;52.032;5.298;2023-01-09T13:44:22;9.30;99.90
20915;DHT22;10617;52.032;5.298;2023-01-09T13:48:27;9.20;99.90
20915;DHT22;10617;52.032;5.298;2023-01-09T13:57:33;9.10;99.90
20915;DHT22;10617;52.032;5.298;2023-01-09T14:09:46;9.20;99.90
20915;DHT22;10617;52.032;5.298;2023-01-09T14:13:54;9.30;99.90
20915;DHT22;10617;52.032;5.298;2023-01-09T14:17:57;9.20;99.90
20915;DHT22;10617;52.032;5.298;2023-01-09T14:22:00;9.30;99.90
20915;DHT22;10617;52.032;5.298;2023-01-09T14:26:02;9.30;99.90
20915;DHT22;10617;52.032;5.298;2023-01-09T14:30:26;9.20;99.90
20915;DHT22;10617;52.032;5.298;2023-01-09T14:34:34;9.10;99.90
20915;DHT22;10617;52.032;5.298;2023-01-09T14:38:39;9.00;99.90
20915;DHT22;10617;52.032;5.298;2023-01-09T14:42:42;8.90;99.90
20915;DHT22;10617;52.032;5.298;2023-01-09T14:46:44;8.90;99.90
20915;DHT22;10617;52.032;5.298;2023-01-09T14:50:50;8.80;99.90
20915;DHT22;10617;52.032;5.298;2023-01-09T14:54:56;8.70;99.90
20915;DHT22;10617;52.032;5.298;2023-01-09T14:59:04;8.70;99.90
20915;DHT22;10617;52.032;5.298;2023-01-09T15:03:07;8.60;99.90
20915;DHT22;10617;52.032;5.298;2023-01-09T15:07:16;8.50;99.90
20915;DHT22;10617;52.032;5.298;2023-01-09T15:11:19;8.50;99.90
20915;DHT22;10617;52.032;5.298;2023-01-09T15:15:21;8.40;99.90
20915;DHT22;10617;52.032;5.298;2023-01-09T15:19:23;8.30;99.90
20915;DHT22;10617;52.032;5.298;2023-01-09T15:23:25;8.20;99.90
20915;DHT22;10617;52.032;5.298;2023-01-09T15:27:29;8.10;99.90
20915;DHT22;10617;52.032;5.298;2023-01-09T15:31:31;8.00;99.90
20915;DHT22;10617;52.032;5.298;2023-01-09T15:35:33;7.90;99.90
20915;DHT22;10617;52.032;5.298;2023-01-09T15:39:34;7.90;99.90
20915;DHT22;10617;52.032;5.298;2023-01-09T15:43:41;7.80;99.90
20915;DHT22;10617;52.032;5.298;2023-01-09T15:47:43;7.70;99.90
20915;DHT22;10617;52.032;5.298;2023-01-09T15:51:45;7.70;99.90
20915;DHT22;10617;52.032;5.298;2023-01-09T16:04:28;7.50;99.90
20915;DHT22;10617;52.032;5.298;2023-01-09T16:08:34;7.40;99.90
20915;DHT22;10617;52.032;5.298;2023-01-09T16:12:37;7.40;99.90
20915;DHT22;10617;52.032;5.298;2023-01-09T16:16:40;7.30;99.90
20915;DHT22;10617;52.032;5.298;2023-01-09T16:20:42;7.30;99.90
20915;DHT22;10617;52.032;5.298;2023-01-09T16:24:44;7.20;99.90
20915;DHT22;10617;52.032;5.298;2023-01-09T16:28:46;7.10;99.90
20915;DHT22;10617;52.032;5.298;2023-01-09T16:32:48;7.10;99.90
20915;DHT22;10617;52.032;5.298;2023-01-09T16:36:51;7.10;99.90
20915;DHT22;10617;52.032;5.298;2023-01-09T16:41:03;7.10;99.90
20915;DHT22;10617;52.032;5.298;2023-01-09T16:45:24;7.20;99.90
20915;DHT22;10617;52.032;5.298;2023-01-09T16:49:26;7.20;99.90
20915;DHT22;10617;52.032;5.298;2023-01-09T16:53:29;7.30;99.90
20915;DHT22;10617;52.032;5.298;2023-01-09T16:57:32;7.40;99.90
20915;DHT22;10617;52.032;5.298;2023-01-09T17:01:34;7.40;99.90
20915;DHT22;10617;52.032;5.298;2023-01-09T17:05:35;7.50;99.90
20915;DHT22;10617;52.032;5.298;2023-01-09T17:09:37;7.60;99.90
20915;DHT22;10617;52.032;5.298;2023-01-09T17:13:39;7.60;99.90
20915;DHT22;10617;52.032;5.298;2023-01-09T17:17:41;7.50;99.90
20915;DHT22;10617;52.032;5.298;2023-01-09T17:21:42;7.40;99.90
20915;DHT22;10617;52.032;5.298;2023-01-09T17:25:44;7.30;99.90
20915;DHT22;10617;52.032;5.298;2023-01-09T17:30:04;7.20;99.90
20915;DHT22;10617;52.032;5.298;2023-01-09T17:34:19;7.10;99.90
20915;DHT22;10617;52.032;5.298;2023-01-09T17:38:20;7.00;99.90
20915;DHT22;10617;52.032;5.298;2023-01-09T17:42:22;7.00;99.90
20915;DHT22;10617;52.032;5.298;2023-01-09T17:46:31;7.00;99.90
20915;DHT22;10617;52.032;5.298;2023-01-09T17:50:33;6.90;99.90
20915;DHT22;10617;52.032;5.298;2023-01-09T17:54:36;6.90;99.90
20915;DHT22;10617;52.032;5.298;2023-01-09T17:58:38;6.90;99.90
20915;DHT22;10617;52.032;5.298;2023-01-09T18:02:40;7.00;99.90
20915;DHT22;10617;52.032;5.298;2023-01-09T18:06:41;6.90;99.90
20915;DHT22;10617;52.032;5.298;2023-01-09T18:10:43;6.90;99.90
20915;DHT22;10617;52.032;5.298;2023-01-09T18:14:48;6.90;99.90
20915;DHT22;10617;52.032;5.298;2023-01-09T18:18:50;6.90;99.90
20915;DHT22;10617;52.032;5.298;2023-01-09T18:22:52;6.90;99.90
20915;DHT22;10617;52.032;5.298;2023-01-09T18:26:54;6.90;99.90
20915;DHT22;10617;52.032;5.298;2023-01-09T18:30:55;6.90;99.90
20915;DHT22;10617;52.032;5.298;2023-01-09T18:34:57;6.90;99.90
20915;DHT22;10617;52.032;5.298;2023-01-09T18:39:00;6.90;99.90
20915;DHT22;10617;52.032;5.298;2023-01-09T18:43:02;7.00;99.90
20915;DHT22;10617;52.032;5.298;2023-01-09T18:47:06;7.00;99.90
20915;DHT22;10617;52.032;5.298;2023-01-09T18:51:08;7.10;99.90
20915;DHT22;10617;52.032;5.298;2023-01-09T18:55:09;7.10;99.90
20915;DHT22;10617;52.032;5.298;2023-01-09T18:59:11;7.20;99.90
20915;DHT22;10617;52.032;5.298;2023-01-09T19:03:13;7.20;99.90
20915;DHT22;10617;52.032;5.298;2023-01-09T19:07:15;7.20;99.90
20915;DHT22;10617;52.032;5.298;2023-01-09T19:11:17;7.20;99.90
20915;DHT22;10617;52.032;5.298;2023-01-09T19:15:19;7.30;99.90
20915;DHT22;10617;52.032;5.298;2023-01-09T19:19:20;7.30;99.90
20915;DHT22;10617;52.032;5.298;2023-01-09T19:23:22;7.30;99.90
20915;DHT22;10617;52.032;5.298;2023-01-09T19:27:27;7.30;99.90
20915;DHT22;10617;52.032;5.298;2023-01-09T19:31:29;7.30;99.90
20915;DHT22;10617;52.032;5.298;2023-01-09T19:35:31;7.20;99.90
20915;DHT22;10617;52.032;5.298;2023-01-09T19:39:33;7.20;99.90
20915;DHT22;10617;52.032;5.298;2023-01-09T19:43:35;7.10;99.90
20915;DHT22;10617;52.032;5.298;2023-01-09T19:47:36;7.10;99.90
20915;DHT22;10617;52.032;5.298;2023-01-09T19:51:38;7.10;99.90
20915;DHT22;10617;52.032;5.298;2023-01-09T19:55:40;7.00;99.90
20915;DHT22;10617;52.032;5.298;2023-01-09T19:59:42;7.10;99.90
20915;DHT22;10617;52.032;5.298;2023-01-09T20:03:45;7.10;99.90
20915;DHT22;10617;52.032;5.298;2023-01-09T20:07:47;7.10;99.90
20915;DHT22;10617;52.032;5.298;2023-01-09T20:11:53;7.20;99.90
20915;DHT22;10617;52.032;5.298;2023-01-09T20:15:56;7.20;99.90
20915;DHT22;10617;52.032;5.298;2023-01-09T20:19:58;7.20;99.90
20915;DHT22;10617;52.032;5.298;2023-01-09T20:24:00;7.20;99.90
20915;DHT22;10617;52.032;5.298;2023-01-09T20:28:01;7.20;99.90
20915;DHT22;10617;52.032;5.298;2023-01-09T20:32:03;7.10;99.90
20915;DHT22;10617;52.032;5.298;2023-01-09T20:36:06;7.00;99.90
20915;DHT22;10617;52.032;5.298;2023-01-09T20:40:09;7.00;99.90
20915;DHT22;10617;52.032;5.298;2023-01-09T20:44:12;7.00;99.90
20915;DHT22;10617;52.032;5.298;2023-01-09T20:48:13;7.00;99.90
20915;DHT22;10617;52.032;5.298;2023-01-09T20:52:15;7.00;99.90
20915;DHT22;10617;52.032;5.298;2023-01-09T20:56:17;7.00;99.90
20915;DHT22;10617;52.032;5.298;2023-01-09T21:00:18;7.00;99.90
20915;DHT22;10617;52.032;5.298;2023-01-09T21:04:20;7.00;99.90
20915;DHT22;10617;52.032;5.298;2023-01-09T21:08:22;7.00;99.90
20915;DHT22;10617;52.032;5.298;2023-01-09T21:12:24;7.00;99.90
20915;DHT22;10617;52.032;5.298;2023-01-09T21:16:28;7.00;99.90
20915;DHT22;10617;52.032;5.298;2023-01-09T21:20:30;7.00;99.90
20915;DHT22;10617;52.032;5.298;2023-01-09T21:24:34;7.00;99.90
20915;DHT22;10617;52.032;5.298;2023-01-09T21:28:36;7.00;99.90
20915;DHT22;10617;52.032;5.298;2023-01-09T21:32:46;7.00;99.90
20915;DHT22;10617;52.032;5.298;2023-01-09T21:36:48;6.90;99.90
20915;DHT22;10617;52.032;5.298;2023-01-09T21:40:50;6.90;99.90
20915;DHT22;10617;52.032;5.298;2023-01-09T21:44:51;6.90;99.90
20915;DHT22;10617;52.032;5.298;2023-01-09T21:49:13;7.00;99.90
20915;DHT22;10617;52.032;5.298;2023-01-09T21:53:15;7.00;99.90
20915;DHT22;10617;52.032;5.298;2023-01-09T21:57:17;7.00;99.90
20915;DHT22;10617;52.032;5.298;2023-01-09T22:01:18;7.00;99.90
20915;DHT22;10617;52.032;5.298;2023-01-09T22:05:20;7.00;99.90
20915;DHT22;10617;52.032;5.298;2023-01-09T22:09:22;7.00;99.90
20915;DHT22;10617;52.032;5.298;2023-01-09T22:13:24;7.10;99.90
20915;DHT22;10617;52.032;5.298;2023-01-09T22:17:26;7.10;99.90
20915;DHT22;10617;52.032;5.298;2023-01-09T22:31:35;7.00;99.90
20915;DHT22;10617;52.032;5.298;2023-01-09T22:35:40;6.90;99.90
20915;DHT22;10617;52.032;5.298;2023-01-09T22:39:42;6.90;99.90
20915;DHT22;10617;52.032;5.298;2023-01-09T22:43:44;6.90;99.90
20915;DHT22;10617;52.032;5.298;2023-01-09T22:47:46;6.90;99.90
20915;DHT22;10617;52.032;5.298;2023-01-09T22:51:47;6.90;99.90
20915;DHT22;10617;52.032;5.298;2023-01-09T22:55:56;6.90;99.90
20915;DHT22;10617;52.032;5.298;2023-01-09T22:59:58;6.90;99.90
20915;DHT22;10617;52.032;5.298;2023-01-09T23:03:59;6.90;99.90
20915;DHT22;10617;52.032;5.298;2023-01-09T23:08:01;6.80;99.90
20915;DHT22;10617;52.032;5.298;2023-01-09T23:12:03;6.80;99.90
20915;DHT22;10617;52.032;5.298;2023-01-09T23:16:06;6.70;99.90
20915;DHT22;10617;52.032;5.298;2023-01-09T23:20:08;6.60;99.90
20915;DHT22;10617;52.032;5.298;2023-01-09T23:24:10;6.50;99.90
20915;DHT22;10617;52.032;5.298;2023-01-09T23:28:12;6.40;99.90
20915;DHT22;10617;52.032;5.298;2023-01-09T23:32:14;6.40;99.90
20915;DHT22;10617;52.032;5.298;2023-01-09T23:36:16;6.30;99.90
20915;DHT22;10617;52.032;5.298;2023-01-09T23:40:17;6.30;99.90
20915;DHT22;10617;52.032;5.298;2023-01-09T23:44:19;6.40;99.90
20915;DHT22;10617;52.032;5.298;2023-01-09T23:48:20;6.40;99.90
20915;DHT22;10617;52.032;5.298;2023-01-09T23:52:22;6.50;99.90
20915;DHT22;10617;52.032;5.298;2023-01-09T23:56:24;6.50;99.90
